< < Back
Terminal Aerodrome Forecast


Current Version              Previous Versions:   1  2  3  4  5  6  7  8  9  

Terminal Aerodrome Forecast

291
FTUS42 KGSP 251731
TAFCLT
TAF
KCLT 251731Z 2518/2618 20011KT P6SM FEW250
     FM260300 18007KT P6SM BKN100
     FM260900 20004KT P6SM BKN016
     FM261600 28006KT P6SM OVC050=



Latest METAR

872
SAUS70 KWBC 260600 RRA
MTRCLT
METAR KCLT 260552Z 17006KT 10SM FEW120 BKN150 06/M01 A2971 RMK AO2
SLP058 T00611006 10100 20061 58029 $


USA.gov is the U.S. government's official web portal to all federal, state and local government web resources and services.